Time;durP1;ratioP1;P1;durP2;ratioP2;P2;SDS_P1;SDS_P2;PMS_P1;PMS_P2;Temp;Humidity;BMP_temperature;BMP_pressure;BME280_temperature;BME280_humidity;BME280_pressure;Samples;Min_cycle;Max_cycle;Signal;HPM_P1;HPM_P2
2022/04/26 03:37:45;;;;;;;;;;;;;;;;;;5094581;28;619;-66
2022/04/26 03:40:10;;;;;;;;;;;;;;;;;;5093321;28;883;-66
2022/04/26 03:42:36;;;;;;;;;;;;;;;;;;5093650;28;1905;-66
2022/04/26 03:45:01;;;;;;;;;;;;;;;;;;5093833;28;887;-65
2022/04/26 03:47:26;;;;;;;;;;;;;;;;;;5093085;28;1230;-66
2022/04/26 03:49:51;;;;;;;;;;;;;;;;;;5092623;28;1011;-66
2022/04/26 03:52:17;;;;;;;;;;;;;;;;;;5093422;28;821;-66
2022/04/26 03:54:42;;;;;;;;;;;;;;;;;;5093993;28;840;-65
2022/04/26 03:57:07;;;;;;;;;;;;;;;;;;5093779;28;876;-65
2022/04/26 03:59:32;;;;;;;;;;;;;;;;;;5093115;28;897;-65
2022/04/26 04:01:58;;;;;;;;;;;;;;;;;;5093869;28;747;-66
2022/04/26 04:04:23;;;;;;;;;;;;;;;;;;5093406;28;1910;-66
2022/04/26 04:06:48;;;;;;;;;;;;;;;;;;5093700;28;809;-66
2022/04/26 04:09:14;;;;;;;;;;;;;;;;;;5091463;28;1277;-66
2022/04/26 04:11:39;;;;;;;;;;;;;;;;;;5093744;28;962;-66
2022/04/26 04:14:04;;;;;;;;;;;;;;;;;;5092270;28;1533;-66
2022/04/26 04:16:29;;;;;;;;;;;;;;;;;;5093242;28;943;-65
2022/04/26 04:21:38;;;;;;;;;;;;;;;;;;5093293;28;616;-65
2022/04/26 04:24:04;;;;;;;;;;;;;;;;;;5074533;28;1902;-65
2022/04/26 04:26:29;;;;;;;;;;;;;;;;;;5092505;28;991;-65
2022/04/26 04:28:54;;;;;;;;;;;;;;;;;;5091646;28;1002;-65
2022/04/26 04:31:20;;;;;;;;;;;;;;;;;;5092665;28;899;-65
2022/04/26 04:33:45;;;;;;;;;;;;;;;;;;5091839;28;1324;-65
2022/04/26 04:36:10;;;;;;;;;;;;;;;;;;5092146;28;1254;-65
2022/04/26 04:38:36;;;;;;;;;;;;;;;;;;5091154;28;1183;-65
2022/04/26 04:41:01;;;;;;;;;;;;;;;;;;5091054;28;1167;-65
2022/04/26 04:43:26;;;;;;;;;;;;;;;;;;5075818;28;1913;-65
2022/04/26 04:45:51;;;;;;;;;;;;;;;;;;5072744;28;1058;-65
2022/04/26 04:48:17;;;;;;;;;;;;;;;;;;5070581;28;1287;-65
2022/04/26 04:50:42;;;;;;;;;;;;;;;;;;5054207;28;1565;-65
2022/04/26 04:53:07;;;;;;;;;;;;;;;;;;5072793;28;888;-65
2022/04/26 04:55:33;;;;;;;;;;;;;;;;;;5071396;28;911;-65
2022/04/26 04:57:58;;;;;;;;;;;;;;;;;;5070455;28;1289;-65
2022/04/26 05:00:23;;;;;;;;;;;;;;;;;;5071629;28;899;-65
2022/04/26 05:02:49;;;;;;;;;;;;;;;;;;5071889;28;1973;-66
2022/04/26 05:05:14;;;;;;;;;;;;;;;;;;5070463;28;794;-66
2022/04/26 05:07:39;;;;;;;;;;;;;;;;;;5071155;28;1018;-66
2022/04/26 05:10:05;;;;;;;;;;;;;;;;;;5071637;28;932;-65
2022/04/26 05:12:30;;;;;;;;;;;;;;;;;;5070682;28;1122;-65
2022/04/26 05:14:55;;;;;;;;;;;;;;;;;;5071397;28;895;-66
2022/04/26 05:17:20;;;;;;;;;;;;;;;;;;5070137;28;994;-66
2022/04/26 05:19:46;;;;;;;;;;;;;;;;;;5070513;28;837;-65
2022/04/26 05:22:11;;;;;;;;;;;;;;;;;;5071532;28;907;-66
2022/04/26 05:27:21;;;;;;;;;;;;;;;;;;5071332;28;678;-66
2022/04/26 05:29:46;;;;;;;;;;;;;;;;;;5053024;28;1258;-66
2022/04/26 05:32:12;;;;;;;;;;;;;;;;;;5070080;28;903;-66
2022/04/26 05:34:37;;;;;;;;;;;;;;;;;;5069045;28;1333;-66
2022/04/26 05:37:02;;;;;;;;;;;;;;;;;;5071888;28;837;-66
2022/04/26 05:39:28;;;;;;;;;;;;;;;;;;5071155;28;1049;-66
2022/04/26 05:41:53;;;;;;;;;;;;;;;;;;5070470;28;849;-66
2022/04/26 05:44:18;;;;;;;;;;;;;;;;;;5069703;28;1898;-66
2022/04/26 05:46:43;;;;;;;;;;;;;;;;;;5071066;28;1068;-66
2022/04/26 05:49:09;;;;;;;;;;;;;;;;;;5071984;28;892;-66
2022/04/26 05:51:34;;;;;;;;;;;;;;;;;;5069454;28;1478;-66
2022/04/26 05:53:59;;;;;;;;;;;;;;;;;;5071789;28;912;-66
2022/04/26 05:56:24;;;;;;;;;;;;;;;;;;5071161;28;825;-66
2022/04/26 05:58:49;;;;;;;;;;;;;;;;;;5053328;28;1172;-66
2022/04/26 06:01:15;;;;;;;;;;;;;;;;;;5071444;28;986;-66
2022/04/26 06:03:40;;;;;;;;;;;;;;;;;;5070140;28;1906;-66
2022/04/26 06:06:05;;;;;;;;;;;;;;;;;;5071690;28;888;-66
2022/04/26 06:08:30;;;;;;;;;;;;;;;;;;5069861;28;861;-66
2022/04/26 06:10:56;;;;;;;;;;;;;;;;;;5071297;28;1104;-66
2022/04/26 06:13:21;;;;;;;;;;;;;;;;;;5069702;28;1550;-66
2022/04/26 06:15:46;;;;;;;;;;;;;;;;;;5069671;28;935;-66
2022/04/26 06:18:11;;;;;;;;;;;;;;;;;;5070093;28;774;-66
2022/04/26 06:20:37;;;;;;;;;;;;;;;;;;5070938;28;996;-66
2022/04/26 06:23:02;;;;;;;;;;;;;;;;;;5073339;28;1890;-65
2022/04/26 06:25:27;;;;;;;;;;;;;;;;;;5073387;28;1141;-65
2022/04/26 06:27:53;;;;;;;;;;;;;;;;;;5074927;28;825;-66
2022/04/26 06:30:18;;;;;;;;;;;;;;;;;;5074695;28;1046;-66
2022/04/26 06:32:43;;;;;;;;;;;;;;;;;;5073253;28;1406;-66
2022/04/26 06:35:09;;;;;;;;;;;;;;;;;;5074704;28;849;-66
2022/04/26 06:37:34;;;;;;;;;;;;;;;;;;5074486;28;916;-66
2022/04/26 06:40:00;;;;;;;;;;;;;;;;;;5074285;28;1027;-65
2022/04/26 06:42:25;;;;;;;;;;;;;;;;;;5074316;28;766;-65
2022/04/26 06:44:50;;;;;;;;;;;;;;;;;;5074524;28;1897;-66
2022/04/26 06:47:15;;;;;;;;;;;;;;;;;;5074364;28;1191;-65
2022/04/26 06:49:41;;;;;;;;;;;;;;;;;;5074831;28;899;-65
2022/04/26 06:52:06;;;;;;;;;;;;;;;;;;5074886;28;1058;-66
2022/04/26 06:54:31;;;;;;;;;;;;;;;;;;5072730;28;848;-66
2022/04/26 06:56:56;;;;;;;;;;;;;;;;;;5074441;28;836;-66
2022/04/26 06:59:22;;;;;;;;;;;;;;;;;;5074481;28;899;-66
2022/04/26 07:01:52;;;;;;;;;;;;;;;;;;5072987;28;808;-66
2022/04/26 07:04:18;;;;;;;;;;;;;;;;;;5073326;28;1910;-66
2022/04/26 07:06:43;;;;;;;;;;;;;;;;;;5074164;28;797;-66
2022/04/26 07:09:08;;;;;;;;;;;;;;;;;;5074682;28;824;-66
2022/04/26 07:11:33;;;;;;;;;;;;;;;;;;5073835;28;954;-65
2022/04/26 07:13:59;;;;;;;;;;;;;;;;;;5073093;28;896;-66
2022/04/26 07:16:24;;;;;;;;;;;;;;;;;;5073929;28;860;-66
2022/04/26 07:18:50;;;;;;;;;;;;;;;;;;5056172;28;1370;-66
2022/04/26 07:21:15;;;;;;;;;;;;;;;;;;5074121;28;881;-66
2022/04/26 07:23:41;;;;;;;;;;;;;;;;;;5074095;28;1965;-66
2022/04/26 07:26:06;;;;;;;;;;;;;;;;;;5074707;28;1065;-66
2022/04/26 07:28:32;;;;;;;;;;;;;;;;;;5074465;28;875;-66
2022/04/26 07:30:57;;;;;;;;;;;;;;;;;;5072959;28;1839;-66
2022/04/26 07:36:06;;;;;;;;;;;;;;;;;;5074389;28;708;-66
2022/04/26 07:38:32;;;;;;;;;;;;;;;;;;5073953;28;816;-66
2022/04/26 07:40:57;;;;;;;;;;;;;;;;;;5074343;28;955;-66
2022/04/26 07:43:22;;;;;;;;;;;;;;;;;;5074740;28;1918;-66
2022/04/26 07:45:48;;;;;;;;;;;;;;;;;;5074114;28;970;-66
2022/04/26 07:48:16;;;;;;;;;;;;;;;;;;5073842;28;1058;-66
2022/04/26 07:50:42;;;;;;;;;;;;;;;;;;5073797;28;845;-66
2022/04/26 07:53:07;;;;;;;;;;;;;;;;;;5073902;28;821;-66
2022/04/26 07:55:32;;;;;;;;;;;;;;;;;;5073402;28;1051;-66
2022/04/26 07:57:58;;;;;;;;;;;;;;;;;;5071992;28;1230;-66
2022/04/26 08:00:24;;;;;;;;;;;;;;;;;;5073416;28;806;-66
2022/04/26 08:02:50;;;;;;;;;;;;;;;;;;5054915;28;1913;-66
2022/04/26 08:05:15;;;;;;;;;;;;;;;;;;5073337;28;816;-66
2022/04/26 08:07:41;;;;;;;;;;;;;;;;;;5072976;28;1034;-66
2022/04/26 08:10:10;;;;;;;;;;;;;;;;;;5073575;28;849;-65
2022/04/26 08:12:37;;;;;;;;;;;;;;;;;;5072964;28;817;-65
2022/04/26 08:15:02;;;;;;;;;;;;;;;;;;5072715;28;875;-66
2022/04/26 08:17:27;;;;;;;;;;;;;;;;;;5071456;28;822;-66
2022/04/26 08:19:52;;;;;;;;;;;;;;;;;;5072985;28;745;-66
2022/04/26 08:22:18;;;;;;;;;;;;;;;;;;5072976;28;889;-66
2022/04/26 08:27:30;;;;;;;;;;;;;;;;;;5072847;28;706;-65
2022/04/26 08:29:56;;;;;;;;;;;;;;;;;;5072789;28;848;-65
2022/04/26 08:32:28;;;;;;;;;;;;;;;;;;5071124;28;895;-65
2022/04/26 08:34:54;;;;;;;;;;;;;;;;;;5072820;28;868;-65
2022/04/26 08:37:20;;;;;;;;;;;;;;;;;;5072645;28;975;-65
2022/04/26 08:39:46;;;;;;;;;;;;;;;;;;5054494;28;1431;-66
2022/04/26 08:42:11;;;;;;;;;;;;;;;;;;5072552;28;1026;-65
2022/04/26 08:44:38;;;;;;;;;;;;;;;;;;5072781;28;1905;-65
2022/04/26 08:52:48;;;;;;;;;;;;;;;;;;5072511;28;784;-65
2022/04/26 08:55:13;;;;;;;;;;;;;;;;;;5072163;28;864;-66
2022/04/26 08:57:39;;;;;;;;;;;;;;;;;;5072537;28;919;-65
2022/04/26 09:00:05;;;;;;;;;;;;;;;;;;5072694;28;949;-65
2022/04/26 09:02:30;;;;;;;;;;;;;;;;;;5072268;28;852;-65
2022/04/26 09:05:00;;;;;;;;;;;;;;;;;;5070948;28;1977;-65
2022/04/26 09:07:32;;;;;;;;;;;;;;;;;;5072333;28;844;-65
2022/04/26 09:10:09;;;;;;;;;;;;;;;;;;5072464;28;999;-65
2022/04/26 09:12:53;;;;;;;;;;;;;;;;;;5071053;28;1174;-65
2022/04/26 09:15:19;;;;;;;;;;;;;;;;;;5072022;28;770;-65
2022/04/26 09:17:44;;;;;;;;;;;;;;;;;;5072323;28;947;-65
2022/04/26 09:20:09;;;;;;;;;;;;;;;;;;5070796;28;1446;-65
2022/04/26 09:22:35;;;;;;;;;;;;;;;;;;5054373;28;1418;-64
2022/04/26 09:25:02;;;;;;;;;;;;;;;;;;5071127;28;1901;-65
2022/04/26 09:27:29;;;;;;;;;;;;;;;;;;5072011;28;900;-65
2022/04/26 09:29:54;;;;;;;;;;;;;;;;;;5071885;28;877;-65
2022/04/26 09:32:19;;;;;;;;;;;;;;;;;;5070907;28;766;-65
2022/04/26 09:34:45;;;;;;;;;;;;;;;;;;5070372;28;1501;-65
2022/04/26 09:37:12;;;;;;;;;;;;;;;;;;5071673;28;947;-65
2022/04/26 09:39:39;;;;;;;;;;;;;;;;;;5071040;28;804;-65
2022/04/26 09:42:05;;;;;;;;;;;;;;;;;;5071448;28;857;-65
2022/04/26 09:44:31;;;;;;;;;;;;;;;;;;5071280;28;1975;-65
2022/04/26 09:46:57;;;;;;;;;;;;;;;;;;5069540;28;1414;-65
2022/04/26 09:49:23;;;;;;;;;;;;;;;;;;5071284;28;833;-65
2022/04/26 09:51:51;;;;;;;;;;;;;;;;;;5070184;28;1233;-65
2022/04/26 09:54:17;;;;;;;;;;;;;;;;;;5070226;28;1138;-65
2022/04/26 09:56:46;;;;;;;;;;;;;;;;;;5071105;28;912;-65
2022/04/26 09:59:17;;;;;;;;;;;;;;;;;;5071784;28;1023;-65
2022/04/26 10:01:43;;;;;;;;;;;;;;;;;;5071249;28;836;-65
2022/04/26 10:04:09;;;;;;;;;;;;;;;;;;5071206;28;1905;-65
2022/04/26 10:06:38;;;;;;;;;;;;;;;;;;5071275;28;1013;-65
2022/04/26 10:09:04;;;;;;;;;;;;;;;;;;5071034;28;829;-65
2022/04/26 10:11:29;;;;;;;;;;;;;;;;;;5070937;28;832;-65
2022/04/26 10:13:56;;;;;;;;;;;;;;;;;;5052813;28;1211;-65
2022/04/26 10:16:21;;;;;;;;;;;;;;;;;;5070934;28;934;-65
2022/04/26 10:18:48;;;;;;;;;;;;;;;;;;5071286;28;820;-65
2022/04/26 10:21:22;;;;;;;;;;;;;;;;;;5069617;28;1218;-65
2022/04/26 10:23:50;;;;;;;;;;;;;;;;;;5071434;28;1906;-65
2022/04/26 10:26:22;;;;;;;;;;;;;;;;;;5069462;28;1570;-65
2022/04/26 10:28:51;;;;;;;;;;;;;;;;;;5069919;28;1306;-65
2022/04/26 10:31:20;;;;;;;;;;;;;;;;;;5069622;28;1218;-65
2022/04/26 10:33:46;;;;;;;;;;;;;;;;;;5071122;28;833;-65
2022/04/26 10:36:27;;;;;;;;;;;;;;;;;;5071210;28;659;-65
2022/04/26 10:39:13;;;;;;;;;;;;;;;;;;5072177;28;942;-65
2022/04/26 10:41:38;;;;;;;;;;;;;;;;;;5071692;28;762;-65
2022/04/26 10:44:13;;;;;;;;;;;;;;;;;;5071030;28;1949;-65
2022/04/26 10:46:41;;;;;;;;;;;;;;;;;;5071793;28;884;-65
2022/04/26 10:49:25;;;;;;;;;;;;;;;;;;5071283;28;1124;-65
2022/04/26 10:51:55;;;;;;;;;;;;;;;;;;5070298;28;1313;-65
2022/04/26 10:54:39;;;;;;;;;;;;;;;;;;5069746;28;1364;-65
2022/04/26 10:57:04;;;;;;;;;;;;;;;;;;5071542;28;915;-66
2022/04/26 10:59:29;;;;;;;;;;;;;;;;;;5071460;28;1006;-65
2022/04/26 11:01:55;;;;;;;;;;;;;;;;;;5071801;28;943;-65
2022/04/26 11:04:20;;;;;;;;;;;;;;;;;;5070579;28;1914;-65
2022/04/26 11:06:47;;;;;;;;;;;;;;;;;;5071195;28;872;-65
2022/04/26 11:09:14;;;;;;;;;;;;;;;;;;5070055;28;1308;-65
2022/04/26 11:12:08;;;;;;;;;;;;;;;;;;5072891;28;1517;-65
2022/04/26 11:14:39;;;;;;;;;;;;;;;;;;5064492;28;1494;-65
2022/04/26 11:17:06;;;;;;;;;;;;;;;;;;5072959;28;747;-66
2022/04/26 11:19:32;;;;;;;;;;;;;;;;;;5072098;28;1305;-65
2022/04/26 11:22:08;;;;;;;;;;;;;;;;;;5072797;28;1246;-65
2022/04/26 11:30:02;;;;;;;;;;;;;;;;;;5073906;28;670;-65
2022/04/26 11:32:28;;;;;;;;;;;;;;;;;;5072110;28;841;-65
2022/04/26 11:34:54;;;;;;;;;;;;;;;;;;5073582;28;773;-65
2022/04/26 11:37:20;;;;;;;;;;;;;;;;;;5055570;28;1298;-65
2022/04/26 11:39:46;;;;;;;;;;;;;;;;;;5055366;28;1057;-65
2022/04/26 11:42:12;;;;;;;;;;;;;;;;;;5073540;28;825;-65
2022/04/26 11:44:54;;;;;;;;;;;;;;;;;;5071878;28;1905;-65
2022/04/26 11:47:19;;;;;;;;;;;;;;;;;;5073544;28;1041;-66
2022/04/26 11:49:45;;;;;;;;;;;;;;;;;;5073640;28;891;-66
2022/04/26 11:52:10;;;;;;;;;;;;;;;;;;5071663;28;1233;-66
2022/04/26 11:54:36;;;;;;;;;;;;;;;;;;5072311;28;884;-66
2022/04/26 11:57:02;;;;;;;;;;;;;;;;;;5073591;28;825;-66
2022/04/26 11:59:28;;;;;;;;;;;;;;;;;;5073007;28;1062;-66
2022/04/26 12:01:53;;;;;;;;;;;;;;;;;;5073755;28;844;-66
2022/04/26 12:04:19;;;;;;;;;;;;;;;;;;5073115;28;1913;-66
2022/04/26 12:06:44;;;;;;;;;;;;;;;;;;5073156;28;845;-66
2022/04/26 12:09:12;;;;;;;;;;;;;;;;;;5081014;28;1389;-65
2022/04/26 12:11:38;;;;;;;;;;;;;;;;;;5093166;28;789;-65
2022/04/26 12:14:14;;;;;;;;;;;;;;;;;;5093574;28;872;-65
2022/04/26 12:16:54;;;;;;;;;;;;;;;;;;5091785;28;1429;-65
2022/04/26 12:19:20;;;;;;;;;;;;;;;;;;5093210;28;879;-66
2022/04/26 12:21:46;;;;;;;;;;;;;;;;;;5091113;28;1471;-66
2022/04/26 12:24:11;;;;;;;;;;;;;;;;;;5091609;28;1899;-66
2022/04/26 12:26:48;;;;;;;;;;;;;;;;;;5093046;28;923;-66
2022/04/26 12:29:13;;;;;;;;;;;;;;;;;;5093248;28;839;-66
2022/04/26 12:31:43;;;;;;;;;;;;;;;;;;5093047;28;769;-66
2022/04/26 12:34:14;;;;;;;;;;;;;;;;;;5093406;28;1117;-66
2022/04/26 12:36:59;;;;;;;;;;;;;;;;;;5093049;28;912;-66
2022/04/26 12:39:26;;;;;;;;;;;;;;;;;;5092885;28;813;-65
2022/04/26 12:41:53;;;;;;;;;;;;;;;;;;5092607;28;1515;-66
2022/04/26 12:44:18;;;;;;;;;;;;;;;;;;5091864;28;1955;-66
2022/04/26 12:50:27;;;;;;;;;;;;;;;;;;5091979;28;963;-66
2022/04/26 12:52:29;;;;;;;;;;;;;;;;;;5093195;28;654;-66
2022/04/26 12:54:55;;;;;;;;;;;;;;;;;;5093617;28;958;-66
2022/04/26 12:57:21;;;;;;;;;;;;;;;;;;5091609;28;825;-67
2022/04/26 12:59:46;;;;;;;;;;;;;;;;;;5093247;28;1018;-66
2022/04/26 13:02:12;;;;;;;;;;;;;;;;;;5074244;28;1379;-66
2022/04/26 13:04:38;;;;;;;;;;;;;;;;;;5073402;28;1918;-66
2022/04/26 13:07:03;;;;;;;;;;;;;;;;;;5073982;28;880;-66
2022/04/26 13:09:28;;;;;;;;;;;;;;;;;;5091678;28;891;-66
2022/04/26 13:11:54;;;;;;;;;;;;;;;;;;5090956;28;860;-66
2022/04/26 13:14:19;;;;;;;;;;;;;;;;;;5090271;28;1311;-66
2022/04/26 13:16:44;;;;;;;;;;;;;;;;;;5091732;28;868;-66
2022/04/26 13:19:10;;;;;;;;;;;;;;;;;;5073261;28;1210;-67
2022/04/26 13:21:35;;;;;;;;;;;;;;;;;;5091323;28;793;-66
2022/04/26 13:24:02;;;;;;;;;;;;;;;;;;5091511;28;1976;-66
2022/04/26 13:26:27;;;;;;;;;;;;;;;;;;5071457;28;1563;-66
2022/04/26 13:28:53;;;;;;;;;;;;;;;;;;5090627;28;1257;-66
2022/04/26 13:31:18;;;;;;;;;;;;;;;;;;5090197;28;816;-66
2022/04/26 13:33:45;;;;;;;;;;;;;;;;;;5072959;28;1526;-66
2022/04/26 13:36:10;;;;;;;;;;;;;;;;;;5090253;28;1590;-66
2022/04/26 13:38:35;;;;;;;;;;;;;;;;;;5072787;28;1219;-66
2022/04/26 13:41:01;;;;;;;;;;;;;;;;;;5090329;28;1151;-66
2022/04/26 13:43:26;;;;;;;;;;;;;;;;;;5090718;28;1898;-66
2022/04/26 13:45:51;;;;;;;;;;;;;;;;;;5091538;28;754;-66
2022/04/26 13:48:17;;;;;;;;;;;;;;;;;;5091841;28;1231;-66
2022/04/26 13:50:43;;;;;;;;;;;;;;;;;;5091224;28;947;-66
2022/04/26 13:53:08;;;;;;;;;;;;;;;;;;5091643;28;833;-67
2022/04/26 13:55:33;;;;;;;;;;;;;;;;;;5090991;28;982;-67
2022/04/26 13:57:59;;;;;;;;;;;;;;;;;;5090006;28;1338;-66
2022/04/26 14:00:25;;;;;;;;;;;;;;;;;;5089934;28;1309;-65
2022/04/26 14:02:50;;;;;;;;;;;;;;;;;;5090719;28;1384;-65
2022/04/26 14:05:20;;;;;;;;;;;;;;;;;;5091791;28;1983;-65
2022/04/26 14:07:46;;;;;;;;;;;;;;;;;;5090175;28;872;-66
2022/04/26 14:10:11;;;;;;;;;;;;;;;;;;5092210;28;927;-66
2022/04/26 14:12:37;;;;;;;;;;;;;;;;;;5073713;28;1292;-66
2022/04/26 14:23:15;;;;;;;;;;;;;;;;;;5071269;28;1948;-66
2022/04/26 14:25:40;;;;;;;;;;;;;;;;;;5071888;28;883;-66
2022/04/26 14:28:05;;;;;;;;;;;;;;;;;;5071532;28;903;-66
2022/04/26 14:30:31;;;;;;;;;;;;;;;;;;5071204;28;883;-66
2022/04/26 14:32:56;;;;;;;;;;;;;;;;;;5071756;28;864;-66
2022/04/26 14:35:22;;;;;;;;;;;;;;;;;;5070395;28;1193;-66
2022/04/26 14:37:48;;;;;;;;;;;;;;;;;;5070092;28;1206;-66
2022/04/26 14:40:14;;;;;;;;;;;;;;;;;;5071883;28;778;-67
2022/04/26 14:42:45;;;;;;;;;;;;;;;;;;5071322;28;990;-67
2022/04/26 14:45:10;;;;;;;;;;;;;;;;;;5075239;28;2069;-66
2022/04/26 14:47:35;;;;;;;;;;;;;;;;;;5074563;28;1077;-66
2022/04/26 14:50:02;;;;;;;;;;;;;;;;;;5074291;28;824;-67
2022/04/26 14:52:28;;;;;;;;;;;;;;;;;;5074197;28;848;-66
2022/04/26 14:54:53;;;;;;;;;;;;;;;;;;5073398;28;1132;-66
2022/04/26 14:57:18;;;;;;;;;;;;;;;;;;5074594;28;908;-66
2022/04/26 14:59:48;;;;;;;;;;;;;;;;;;5074402;28;1004;-66
2022/04/26 15:02:16;;;;;;;;;;;;;;;;;;5074581;28;864;-66
2022/04/26 15:04:41;;;;;;;;;;;;;;;;;;5073756;28;1894;-66
2022/04/26 15:07:06;;;;;;;;;;;;;;;;;;5074385;28;887;-66
2022/04/26 15:09:44;;;;;;;;;;;;;;;;;;5073807;28;822;-67
2022/04/26 15:17:44;;;;;;;;;;;;;;;;;;5073989;28;711;-66
2022/04/26 15:20:10;;;;;;;;;;;;;;;;;;5072494;28;1327;-67
2022/04/26 15:22:37;;;;;;;;;;;;;;;;;;5072092;28;1222;-66
2022/04/26 15:25:05;;;;;;;;;;;;;;;;;;5072285;28;1898;-66
2022/04/26 15:27:30;;;;;;;;;;;;;;;;;;5073575;28;793;-66
2022/04/26 15:29:55;;;;;;;;;;;;;;;;;;5072591;28;908;-66
2022/04/26 15:32:23;;;;;;;;;;;;;;;;;;5073044;28;1049;-66
2022/04/26 15:34:48;;;;;;;;;;;;;;;;;;5073068;28;1298;-66
2022/04/26 15:37:14;;;;;;;;;;;;;;;;;;5071442;28;1168;-67
2022/04/26 15:39:40;;;;;;;;;;;;;;;;;;5086633;28;1129;-66
2022/04/26 15:42:06;;;;;;;;;;;;;;;;;;5093549;28;848;-67
2022/04/26 15:44:31;;;;;;;;;;;;;;;;;;5094232;28;1901;-67
2022/04/26 15:46:56;;;;;;;;;;;;;;;;;;5093258;28;1212;-67
2022/04/26 15:49:25;;;;;;;;;;;;;;;;;;5076112;28;1437;-67
2022/04/26 15:51:51;;;;;;;;;;;;;;;;;;5093741;28;782;-67
2022/04/26 15:54:17;;;;;;;;;;;;;;;;;;5092577;28;927;-67
2022/04/26 15:56:42;;;;;;;;;;;;;;;;;;5092596;28;1163;-67
2022/04/26 15:59:08;;;;;;;;;;;;;;;;;;5073991;28;1376;-67
2022/04/26 16:01:33;;;;;;;;;;;;;;;;;;5093533;28;820;-66
2022/04/26 16:04:00;;;;;;;;;;;;;;;;;;5091881;28;1883;-66
2022/04/26 16:06:25;;;;;;;;;;;;;;;;;;5092533;28;856;-66
2022/04/26 16:08:51;;;;;;;;;;;;;;;;;;5075578;28;1250;-67
2022/04/26 16:22:12;;;;;;;;;;;;;;;;;;5094304;28;706;-66
2022/04/26 16:24:40;;;;;;;;;;;;;;;;;;5092252;28;2087;-66
2022/04/26 16:27:06;;;;;;;;;;;;;;;;;;5093332;28;911;-65
2022/04/26 16:29:31;;;;;;;;;;;;;;;;;;5075160;28;1255;-66
2022/04/26 16:31:56;;;;;;;;;;;;;;;;;;5093851;28;1058;-66
2022/04/26 16:34:22;;;;;;;;;;;;;;;;;;5093051;28;883;-66
2022/04/26 16:36:47;;;;;;;;;;;;;;;;;;5093264;28;769;-66
2022/04/26 16:39:12;;;;;;;;;;;;;;;;;;5093028;28;900;-66
2022/04/26 16:41:37;;;;;;;;;;;;;;;;;;5091604;28;1167;-66
2022/04/26 16:44:03;;;;;;;;;;;;;;;;;;5091188;28;1954;-66
2022/04/26 16:46:32;;;;;;;;;;;;;;;;;;5089975;28;1136;-66
2022/04/26 16:48:58;;;;;;;;;;;;;;;;;;5073753;28;1203;-66
2022/04/26 16:51:24;;;;;;;;;;;;;;;;;;5071170;28;1171;-66
2022/04/26 16:53:50;;;;;;;;;;;;;;;;;;5071085;28;919;-66
2022/04/26 16:56:15;;;;;;;;;;;;;;;;;;5054119;28;1276;-66
2022/04/26 16:58:40;;;;;;;;;;;;;;;;;;5071250;28;908;-67
2022/04/26 17:01:07;;;;;;;;;;;;;;;;;;5071453;28;861;-66
2022/04/26 17:03:32;;;;;;;;;;;;;;;;;;5072139;28;1972;-67
2022/04/26 17:05:58;;;;;;;;;;;;;;;;;;5070980;28;1006;-67
2022/04/26 17:08:23;;;;;;;;;;;;;;;;;;5070143;28;809;-66
2022/04/26 17:10:50;;;;;;;;;;;;;;;;;;5071663;28;821;-66
2022/04/26 17:13:16;;;;;;;;;;;;;;;;;;5070922;28;1411;-67
2022/04/26 17:15:42;;;;;;;;;;;;;;;;;;5071650;28;820;-67
2022/04/26 17:18:07;;;;;;;;;;;;;;;;;;5069571;28;1340;-67
2022/04/26 17:20:33;;;;;;;;;;;;;;;;;;5071252;28;887;-66
2022/04/26 17:23:03;;;;;;;;;;;;;;;;;;5070304;28;1247;-67
2022/04/26 17:25:29;;;;;;;;;;;;;;;;;;5071610;28;884;-66
2022/04/26 17:27:55;;;;;;;;;;;;;;;;;;5071638;28;844;-67
2022/04/26 17:30:21;;;;;;;;;;;;;;;;;;5070855;28;1348;-67
2022/04/26 17:32:47;;;;;;;;;;;;;;;;;;5071528;28;943;-67
2022/04/26 17:35:13;;;;;;;;;;;;;;;;;;5070145;28;1401;-67
2022/04/26 17:37:39;;;;;;;;;;;;;;;;;;5070314;28;1421;-67
2022/04/26 17:40:05;;;;;;;;;;;;;;;;;;5071829;28;1057;-67
2022/04/26 17:42:34;;;;;;;;;;;;;;;;;;5071974;28;924;-66
2022/04/26 17:45:00;;;;;;;;;;;;;;;;;;5071991;28;2053;-66
2022/04/26 17:47:25;;;;;;;;;;;;;;;;;;5071608;28;1360;-67
2022/04/26 17:49:50;;;;;;;;;;;;;;;;;;5054243;28;1291;-67
2022/04/26 17:52:15;;;;;;;;;;;;;;;;;;5071107;28;892;-67
2022/04/26 17:57:25;;;;;;;;;;;;;;;;;;5072423;28;627;-67
2022/04/26 17:59:51;;;;;;;;;;;;;;;;;;5054083;28;1140;-67
2022/04/26 18:02:17;;;;;;;;;;;;;;;;;;5054341;28;1279;-67
2022/04/26 18:04:42;;;;;;;;;;;;;;;;;;5071845;28;1918;-66
2022/04/26 18:07:08;;;;;;;;;;;;;;;;;;5071248;28;879;-67
2022/04/26 18:09:34;;;;;;;;;;;;;;;;;;5071601;28;852;-66
2022/04/26 18:11:59;;;;;;;;;;;;;;;;;;5069937;28;1409;-66
2022/04/26 18:14:24;;;;;;;;;;;;;;;;;;5072015;28;852;-67
2022/04/26 18:16:50;;;;;;;;;;;;;;;;;;5079152;28;1180;-67
2022/04/26 18:19:15;;;;;;;;;;;;;;;;;;5087547;28;1184;-67
2022/04/26 18:21:40;;;;;;;;;;;;;;;;;;5094972;28;1215;-67
2022/04/26 18:24:05;;;;;;;;;;;;;;;;;;5095422;28;1973;-67
2022/04/26 18:26:31;;;;;;;;;;;;;;;;;;5093589;28;1232;-67
2022/04/26 18:28:57;;;;;;;;;;;;;;;;;;5093720;28;1209;-67
2022/04/26 18:31:24;;;;;;;;;;;;;;;;;;5095862;28;966;-67
2022/04/26 18:33:50;;;;;;;;;;;;;;;;;;5093952;28;1412;-67
2022/04/26 18:36:17;;;;;;;;;;;;;;;;;;5094251;28;1026;-67
2022/04/26 18:38:48;;;;;;;;;;;;;;;;;;5095595;28;911;-67
2022/04/26 18:41:14;;;;;;;;;;;;;;;;;;5093708;28;1266;-67
2022/04/26 18:43:40;;;;;;;;;;;;;;;;;;5094960;28;1898;-67
2022/04/26 18:46:05;;;;;;;;;;;;;;;;;;5093515;28;1242;-67
2022/04/26 18:48:31;;;;;;;;;;;;;;;;;;5093468;28;1243;-67
2022/04/26 18:50:57;;;;;;;;;;;;;;;;;;5093938;28;1203;-67
2022/04/26 18:53:22;;;;;;;;;;;;;;;;;;5095208;28;919;-67
2022/04/26 18:55:49;;;;;;;;;;;;;;;;;;5095115;28;839;-67
2022/04/26 18:58:17;;;;;;;;;;;;;;;;;;5095093;28;905;-67
2022/04/26 19:00:43;;;;;;;;;;;;;;;;;;5093302;28;1210;-67
2022/04/26 19:03:09;;;;;;;;;;;;;;;;;;5094439;28;1973;-67
2022/04/26 19:05:34;;;;;;;;;;;;;;;;;;5093598;28;781;-67
2022/04/26 19:07:59;;;;;;;;;;;;;;;;;;5093438;28;1709;-67
2022/04/26 19:13:08;;;;;;;;;;;;;;;;;;5093485;28;646;-66
2022/04/26 19:15:34;;;;;;;;;;;;;;;;;;5094313;28;700;-67
2022/04/26 19:18:00;;;;;;;;;;;;;;;;;;5093497;28;856;-67
2022/04/26 19:20:29;;;;;;;;;;;;;;;;;;5093406;28;1187;-67
2022/04/26 19:22:55;;;;;;;;;;;;;;;;;;5094878;28;856;-66
2022/04/26 19:25:20;;;;;;;;;;;;;;;;;;5076290;28;1933;-67
2022/04/26 19:27:46;;;;;;;;;;;;;;;;;;5093036;28;1345;-67
2022/04/26 19:30:11;;;;;;;;;;;;;;;;;;5093274;28;734;-67
2022/04/26 19:32:37;;;;;;;;;;;;;;;;;;5076497;28;1309;-66
2022/04/26 19:35:02;;;;;;;;;;;;;;;;;;5094336;28;880;-67
2022/04/26 19:37:27;;;;;;;;;;;;;;;;;;5092972;28;1012;-66
2022/04/26 19:39:53;;;;;;;;;;;;;;;;;;5095082;28;832;-67
2022/04/26 19:42:18;;;;;;;;;;;;;;;;;;5094449;28;979;-67
2022/04/26 19:44:43;;;;;;;;;;;;;;;;;;5093228;28;1906;-66
2022/04/26 19:47:09;;;;;;;;;;;;;;;;;;5092498;28;1170;-66
2022/04/26 19:49:34;;;;;;;;;;;;;;;;;;5094056;28;877;-66
2022/04/26 19:51:59;;;;;;;;;;;;;;;;;;5094067;28;939;-66
2022/04/26 19:54:25;;;;;;;;;;;;;;;;;;5092366;28;1501;-67
2022/04/26 19:56:50;;;;;;;;;;;;;;;;;;5094383;28;804;-67
2022/04/26 19:59:16;;;;;;;;;;;;;;;;;;5075767;28;1419;-67
2022/04/26 20:01:41;;;;;;;;;;;;;;;;;;5093827;28;915;-67
2022/04/26 20:04:07;;;;;;;;;;;;;;;;;;5092403;28;1906;-67
2022/04/26 20:06:32;;;;;;;;;;;;;;;;;;5094006;28;951;-67
2022/04/26 20:08:57;;;;;;;;;;;;;;;;;;5094081;28;994;-66
2022/04/26 20:11:23;;;;;;;;;;;;;;;;;;5091169;28;1239;-66
2022/04/26 20:13:48;;;;;;;;;;;;;;;;;;5088636;28;1214;-66
2022/04/26 20:16:14;;;;;;;;;;;;;;;;;;5090129;28;1163;-65
2022/04/26 20:18:39;;;;;;;;;;;;;;;;;;5092140;28;1234;-65
2022/04/26 20:21:04;;;;;;;;;;;;;;;;;;5092763;28;1038;-67
2022/04/26 20:23:30;;;;;;;;;;;;;;;;;;5092761;28;1889;-67
2022/04/26 20:31:23;;;;;;;;;;;;;;;;;;5093353;28;709;-67
2022/04/26 20:33:49;;;;;;;;;;;;;;;;;;5092330;28;857;-66
2022/04/26 20:36:14;;;;;;;;;;;;;;;;;;5092464;28;899;-67
2022/04/26 20:38:39;;;;;;;;;;;;;;;;;;5090967;28;1276;-67
2022/04/26 20:41:05;;;;;;;;;;;;;;;;;;5092655;28;891;-65
2022/04/26 20:43:30;;;;;;;;;;;;;;;;;;5090819;28;1906;-66
2022/04/26 20:45:56;;;;;;;;;;;;;;;;;;5074234;28;1479;-66
2022/04/26 20:48:25;;;;;;;;;;;;;;;;;;5092252;28;1413;-66
2022/04/26 20:50:54;;;;;;;;;;;;;;;;;;5092378;28;844;-66
2022/04/26 20:53:20;;;;;;;;;;;;;;;;;;5091404;28;1182;-66
2022/04/26 20:55:49;;;;;;;;;;;;;;;;;;5092543;28;782;-66
2022/04/26 20:58:15;;;;;;;;;;;;;;;;;;5092166;28;1063;-66
2022/04/26 21:00:40;;;;;;;;;;;;;;;;;;5092407;28;945;-66
2022/04/26 21:03:06;;;;;;;;;;;;;;;;;;5092298;28;817;-66
2022/04/26 21:05:31;;;;;;;;;;;;;;;;;;5090670;28;1969;-66
2022/04/26 21:07:57;;;;;;;;;;;;;;;;;;5092337;28;856;-66
2022/04/26 21:10:22;;;;;;;;;;;;;;;;;;5092152;28;975;-66
2022/04/26 21:15:31;;;;;;;;;;;;;;;;;;5092119;28;636;-66
2022/04/26 21:17:57;;;;;;;;;;;;;;;;;;5092715;28;841;-66
2022/04/26 21:20:22;;;;;;;;;;;;;;;;;;5091901;28;888;-66
2022/04/26 21:22:48;;;;;;;;;;;;;;;;;;5091626;28;865;-66
2022/04/26 21:25:13;;;;;;;;;;;;;;;;;;5092081;28;1906;-66
2022/04/26 21:27:38;;;;;;;;;;;;;;;;;;5090261;28;1181;-66
2022/04/26 21:30:04;;;;;;;;;;;;;;;;;;5090921;28;893;-66
2022/04/26 21:32:29;;;;;;;;;;;;;;;;;;5090093;28;951;-66
2022/04/26 21:34:55;;;;;;;;;;;;;;;;;;5090849;28;1167;-66
2022/04/26 21:37:20;;;;;;;;;;;;;;;;;;5090936;28;1202;-66
2022/04/26 21:39:46;;;;;;;;;;;;;;;;;;5078777;28;1266;-65
2022/04/26 21:42:11;;;;;;;;;;;;;;;;;;5071574;28;750;-66
2022/04/26 21:44:36;;;;;;;;;;;;;;;;;;5070760;28;1910;-66
2022/04/26 21:47:02;;;;;;;;;;;;;;;;;;5085782;28;1096;-66